createdAt,value
2019-03-31T00:00:10.392Z,9.50
2019-03-31T00:01:13.993Z,9.50
2019-03-31T00:02:22.221Z,9.50
2019-03-31T00:03:25.831Z,9.50
2019-03-31T00:04:29.413Z,9.40
2019-03-31T00:05:33.209Z,9.30
2019-03-31T00:06:36.882Z,9.30
2019-03-31T00:07:40.537Z,9.40
2019-03-31T00:08:44.142Z,9.40
2019-03-31T00:09:47.820Z,9.30
2019-03-31T00:10:51.482Z,9.30
2019-03-31T00:11:55.157Z,9.30
2019-03-31T00:12:58.767Z,9.40
2019-03-31T00:14:02.462Z,9.30
2019-03-31T00:15:07.923Z,9.30
2019-03-31T00:16:11.520Z,9.30
2019-03-31T00:17:15.144Z,9.30
2019-03-31T00:18:18.747Z,9.40
2019-03-31T00:19:22.409Z,9.30
2019-03-31T00:20:26.004Z,9.40
2019-03-31T00:21:29.681Z,9.40
2019-03-31T00:22:33.289Z,9.40
2019-03-31T00:23:36.900Z,9.40
2019-03-31T00:24:40.536Z,9.40
2019-03-31T00:25:45.780Z,9.40
2019-03-31T00:26:49.381Z,9.40
2019-03-31T00:27:52.987Z,9.30
2019-03-31T00:28:56.641Z,9.30
2019-03-31T00:30:00.348Z,9.30
2019-03-31T00:31:04.584Z,9.30
2019-03-31T00:32:08.321Z,9.30
2019-03-31T00:33:11.923Z,9.20
2019-03-31T00:34:15.530Z,9.10
2019-03-31T00:35:19.136Z,9.00
2019-03-31T00:36:22.783Z,9.00
2019-03-31T00:37:26.380Z,9.00
2019-03-31T00:38:29.988Z,9.00
2019-03-31T00:39:33.633Z,9.00
2019-03-31T00:40:37.241Z,9.00
2019-03-31T00:41:40.925Z,9.00
2019-03-31T00:42:44.512Z,9.00
2019-03-31T00:43:48.149Z,9.10
2019-03-31T00:44:51.756Z,9.00
2019-03-31T00:45:55.365Z,8.90
2019-03-31T00:47:02.008Z,8.80
2019-03-31T00:48:04.298Z,8.80
2019-03-31T00:49:07.960Z,8.70
2019-03-31T00:50:11.629Z,8.60
2019-03-31T00:51:15.238Z,8.60
2019-03-31T00:52:18.840Z,8.50
2019-03-31T00:53:22.533Z,8.50
2019-03-31T00:54:27.762Z,8.50
2019-03-31T00:55:31.598Z,8.40
2019-03-31T00:56:35.266Z,8.30
2019-03-31T00:57:38.873Z,8.30
2019-03-31T00:58:42.586Z,8.30
2019-03-31T00:59:46.263Z,8.30
2019-03-31T01:00:52.443Z,8.30
2019-03-31T01:01:57.752Z,8.30
2019-03-31T01:03:01.488Z,8.30
2019-03-31T01:04:06.139Z,8.20
2019-03-31T01:05:09.932Z,8.30
2019-03-31T01:06:15.775Z,8.20
2019-03-31T01:07:19.553Z,8.30
2019-03-31T01:08:24.492Z,8.30
2019-03-31T01:09:31.257Z,8.30
2019-03-31T01:10:35.010Z,8.20
2019-03-31T01:11:38.671Z,8.30
2019-03-31T01:12:42.420Z,8.30
2019-03-31T01:13:46.567Z,8.30
2019-03-31T01:14:50.221Z,8.20
2019-03-31T01:15:55.429Z,8.30
2019-03-31T01:17:00.070Z,8.30
2019-03-31T01:18:04.382Z,8.30
2019-03-31T01:19:08.162Z,8.30
2019-03-31T01:20:12.242Z,8.20
2019-03-31T01:21:16.299Z,8.20
2019-03-31T01:22:19.932Z,8.30
2019-03-31T01:23:23.542Z,8.30
2019-03-31T01:24:27.285Z,8.30
2019-03-31T01:25:30.895Z,8.30
2019-03-31T01:26:34.565Z,8.30
2019-03-31T01:27:38.271Z,8.30
2019-03-31T01:28:41.952Z,8.20
2019-03-31T01:29:45.631Z,8.20
2019-03-31T01:30:49.770Z,8.20
2019-03-31T01:31:54.551Z,8.10
2019-03-31T01:32:58.493Z,8.00
2019-03-31T01:34:02.316Z,8.00
2019-03-31T01:35:08.349Z,8.00
2019-03-31T01:36:12.085Z,7.90
2019-03-31T01:37:15.987Z,7.90
2019-03-31T01:38:19.858Z,7.90
2019-03-31T01:39:24.839Z,7.90
2019-03-31T01:40:28.519Z,7.90
2019-03-31T01:41:32.121Z,7.90
2019-03-31T01:42:35.803Z,7.90
2019-03-31T01:43:39.413Z,7.90
2019-03-31T01:44:43.066Z,7.90
2019-03-31T01:45:46.674Z,7.90
2019-03-31T01:46:50.284Z,7.90
2019-03-31T01:47:53.960Z,7.90
2019-03-31T01:48:57.560Z,7.80
2019-03-31T01:50:01.221Z,7.80
2019-03-31T01:51:05.474Z,7.80
2019-03-31T01:52:09.139Z,7.80
2019-03-31T01:53:12.802Z,7.70
2019-03-31T01:54:16.466Z,7.70
2019-03-31T01:55:20.069Z,7.70
2019-03-31T01:56:24.365Z,7.70
2019-03-31T01:57:28.051Z,7.70
2019-03-31T01:58:31.665Z,7.70
2019-03-31T01:59:35.278Z,7.70
2019-03-31T02:00:43.361Z,7.70
2019-03-31T02:01:47.031Z,7.70
2019-03-31T02:02:50.676Z,7.70
2019-03-31T02:03:54.344Z,7.70
2019-03-31T02:04:58.385Z,7.70
2019-03-31T02:06:02.268Z,7.70
2019-03-31T02:07:07.861Z,7.70
2019-03-31T02:08:11.630Z,7.70
2019-03-31T02:09:15.169Z,7.60
2019-03-31T02:10:18.808Z,7.60
2019-03-31T02:11:22.483Z,7.60
2019-03-31T02:12:26.086Z,7.50
2019-03-31T02:13:29.740Z,7.50
2019-03-31T02:14:33.335Z,7.50
2019-03-31T02:15:36.936Z,7.50
2019-03-31T02:16:40.582Z,7.50
2019-03-31T02:17:44.224Z,7.50
2019-03-31T02:18:47.878Z,7.40
2019-03-31T02:19:51.485Z,7.50
2019-03-31T02:20:55.081Z,7.40
2019-03-31T02:21:58.927Z,7.50
2019-03-31T02:23:02.663Z,7.50
2019-03-31T02:24:06.283Z,7.50
2019-03-31T02:25:09.938Z,7.50
2019-03-31T02:26:13.541Z,7.50
2019-03-31T02:27:17.183Z,7.50
2019-03-31T02:28:21.064Z,7.40
2019-03-31T02:29:24.686Z,7.40
2019-03-31T02:30:28.321Z,7.50
2019-03-31T02:31:31.922Z,7.40
2019-03-31T02:32:35.523Z,7.50
2019-03-31T02:33:39.127Z,7.50
2019-03-31T02:34:42.802Z,7.40
2019-03-31T02:35:46.438Z,7.40
2019-03-31T02:36:50.044Z,7.50
2019-03-31T02:37:53.651Z,7.50
2019-03-31T02:38:57.246Z,7.50
2019-03-31T02:40:00.865Z,7.40
2019-03-31T02:41:04.594Z,7.40
2019-03-31T02:42:08.199Z,7.30
2019-03-31T02:43:11.796Z,7.40
2019-03-31T02:44:15.383Z,7.40
2019-03-31T02:45:18.993Z,7.40
2019-03-31T02:46:22.640Z,7.40
2019-03-31T02:47:26.239Z,7.30
2019-03-31T02:48:29.838Z,7.30
2019-03-31T02:49:33.444Z,7.20
2019-03-31T02:50:48.592Z,7.20
2019-03-31T02:51:52.238Z,7.20
2019-03-31T02:52:55.924Z,7.30
2019-03-31T02:53:59.607Z,7.20
2019-03-31T02:55:03.615Z,7.20
2019-03-31T02:56:08.003Z,7.20
2019-03-31T02:57:12.018Z,7.10
2019-03-31T02:58:16.868Z,7.10
2019-03-31T02:59:20.608Z,7.10
2019-03-31T03:00:24.360Z,7.10
2019-03-31T03:01:29.544Z,7.20
2019-03-31T03:02:42.243Z,7.20
2019-03-31T03:03:40.900Z,7.20
2019-03-31T03:04:46.221Z,7.20
2019-03-31T03:05:50.268Z,7.10
2019-03-31T03:06:55.007Z,7.10
2019-03-31T03:08:00.147Z,7.10
2019-03-31T03:09:06.107Z,7.10
2019-03-31T03:10:09.783Z,7.00
2019-03-31T03:11:16.955Z,7.00
2019-03-31T03:12:22.551Z,6.90
2019-03-31T03:13:29.216Z,6.90
2019-03-31T03:14:34.388Z,6.90
2019-03-31T03:15:41.065Z,6.90
2019-03-31T03:16:44.675Z,6.90
2019-03-31T03:17:48.278Z,6.90
2019-03-31T03:18:52.014Z,6.80
2019-03-31T03:19:55.685Z,6.90
2019-03-31T03:20:59.377Z,6.90
2019-03-31T03:22:02.975Z,6.90
2019-03-31T03:23:06.572Z,6.90
2019-03-31T03:24:10.177Z,6.90
2019-03-31T03:25:13.863Z,6.90
2019-03-31T03:26:17.654Z,6.90
2019-03-31T03:27:21.252Z,6.90
2019-03-31T03:28:24.857Z,6.90
2019-03-31T03:29:28.471Z,6.90
2019-03-31T03:30:32.176Z,6.90
2019-03-31T03:31:35.826Z,6.90
2019-03-31T03:32:39.471Z,6.90
2019-03-31T03:33:43.540Z,7.00
2019-03-31T03:34:47.158Z,7.00
2019-03-31T03:35:51.002Z,6.90
2019-03-31T03:36:54.595Z,6.80
2019-03-31T03:37:58.208Z,6.80
2019-03-31T03:39:01.857Z,6.80
2019-03-31T03:40:06.604Z,6.80
2019-03-31T03:41:10.282Z,6.70
2019-03-31T03:42:13.923Z,6.60
2019-03-31T03:43:17.531Z,6.60
2019-03-31T03:44:21.141Z,6.60
2019-03-31T03:45:24.762Z,6.50
2019-03-31T03:46:28.422Z,6.50
2019-03-31T03:47:32.021Z,6.50
2019-03-31T03:48:35.623Z,6.50
2019-03-31T03:49:39.226Z,6.40
2019-03-31T03:50:42.815Z,6.40
2019-03-31T03:51:46.472Z,6.40
2019-03-31T03:52:50.075Z,6.40
2019-03-31T03:53:53.744Z,6.50
2019-03-31T03:54:57.386Z,6.60
2019-03-31T03:56:00.996Z,6.60
2019-03-31T03:57:04.663Z,6.60
2019-03-31T03:58:08.267Z,6.60
2019-03-31T03:59:11.915Z,6.60
2019-03-31T04:00:15.937Z,6.60
2019-03-31T04:01:20.224Z,6.60
2019-03-31T04:02:23.878Z,6.60
2019-03-31T04:03:30.854Z,6.60
2019-03-31T04:04:32.775Z,6.50
2019-03-31T04:05:36.385Z,6.60
2019-03-31T04:06:39.981Z,6.50
2019-03-31T04:07:43.587Z,6.50
2019-03-31T04:08:47.303Z,6.50
2019-03-31T04:09:50.905Z,6.50
2019-03-31T04:11:06.266Z,6.50
2019-03-31T04:12:09.898Z,6.50
2019-03-31T04:13:13.599Z,6.50
2019-03-31T04:14:17.409Z,6.40
2019-03-31T04:15:21.028Z,6.40
2019-03-31T04:16:24.628Z,6.40
2019-03-31T04:17:28.240Z,6.30
2019-03-31T04:18:31.847Z,6.40
2019-03-31T04:19:35.511Z,6.40
2019-03-31T04:20:39.510Z,6.30
2019-03-31T04:21:43.439Z,6.30
2019-03-31T04:22:47.034Z,6.30
2019-03-31T04:23:50.710Z,6.30
2019-03-31T04:24:54.428Z,6.30
2019-03-31T04:25:58.036Z,6.20
2019-03-31T04:27:01.921Z,6.30
2019-03-31T04:28:05.484Z,6.30
2019-03-31T04:29:09.210Z,6.20
2019-03-31T04:30:12.876Z,6.30
2019-03-31T04:31:16.599Z,6.30
2019-03-31T04:32:20.193Z,6.30
2019-03-31T04:33:23.805Z,6.30
2019-03-31T04:34:27.427Z,6.40
2019-03-31T04:35:31.022Z,6.40
2019-03-31T04:36:34.676Z,6.40
2019-03-31T04:37:38.283Z,6.40
2019-03-31T04:38:41.912Z,6.40
2019-03-31T04:39:45.543Z,6.40
2019-03-31T04:40:49.193Z,6.30
2019-03-31T04:41:52.807Z,6.30
2019-03-31T04:42:56.474Z,6.20
2019-03-31T04:44:00.075Z,6.30
2019-03-31T04:45:04.041Z,6.30
2019-03-31T04:46:07.769Z,6.20
2019-03-31T04:47:11.380Z,6.20
2019-03-31T04:48:14.988Z,6.20
2019-03-31T04:49:18.594Z,6.30
2019-03-31T04:50:22.231Z,6.30
2019-03-31T04:51:25.875Z,6.30
2019-03-31T04:52:29.487Z,6.30
2019-03-31T04:53:33.089Z,6.30
2019-03-31T04:54:36.693Z,6.40
2019-03-31T04:55:40.286Z,6.40
2019-03-31T04:56:43.938Z,6.40
2019-03-31T04:57:47.550Z,6.40
2019-03-31T04:58:51.273Z,6.40
2019-03-31T04:59:54.883Z,6.50
2019-03-31T05:00:58.493Z,6.50
2019-03-31T05:02:02.101Z,6.50
2019-03-31T05:03:05.753Z,6.50
2019-03-31T05:04:09.570Z,6.40
2019-03-31T05:05:13.210Z,6.40
2019-03-31T05:06:16.809Z,6.40
2019-03-31T05:07:20.463Z,6.40
2019-03-31T05:08:24.071Z,6.40
2019-03-31T05:09:27.666Z,6.40
2019-03-31T05:10:31.295Z,6.40
2019-03-31T05:11:35.178Z,6.50
2019-03-31T05:12:38.821Z,6.50
2019-03-31T05:13:42.420Z,6.50
2019-03-31T05:14:46.027Z,6.40
2019-03-31T05:15:49.645Z,6.50
2019-03-31T05:16:53.299Z,6.50
2019-03-31T05:17:56.908Z,6.50
2019-03-31T05:19:00.501Z,6.60
2019-03-31T05:20:05.918Z,6.60
2019-03-31T05:21:09.550Z,6.60
2019-03-31T05:22:13.149Z,6.60
2019-03-31T05:23:16.757Z,6.60
2019-03-31T05:24:20.410Z,6.60
2019-03-31T05:25:24.070Z,6.60
2019-03-31T05:26:27.849Z,6.50
2019-03-31T05:27:31.456Z,6.40
2019-03-31T05:28:35.111Z,6.40
2019-03-31T05:29:38.714Z,6.40
2019-03-31T05:30:42.327Z,6.40
2019-03-31T05:31:45.926Z,6.50
2019-03-31T05:32:49.587Z,6.50
2019-03-31T05:33:53.274Z,6.60
2019-03-31T05:34:56.872Z,6.50
2019-03-31T05:36:00.534Z,6.50
2019-03-31T05:37:04.144Z,6.50
2019-03-31T05:38:07.757Z,6.40
2019-03-31T05:39:11.376Z,6.50
2019-03-31T05:40:15.112Z,6.40
2019-03-31T05:41:18.766Z,6.40
2019-03-31T05:42:22.368Z,6.50
2019-03-31T05:43:26.029Z,6.60
2019-03-31T05:44:29.639Z,6.60
2019-03-31T05:45:33.239Z,6.50
2019-03-31T05:46:36.844Z,6.60
2019-03-31T05:47:40.445Z,6.60
2019-03-31T05:48:44.087Z,6.60
2019-03-31T05:49:47.735Z,6.70
2019-03-31T05:50:51.417Z,6.70
2019-03-31T05:51:55.031Z,6.80
2019-03-31T05:52:58.640Z,6.70
2019-03-31T05:54:02.319Z,6.80
2019-03-31T05:55:06.816Z,6.80
2019-03-31T05:56:10.430Z,6.80
2019-03-31T05:57:14.143Z,6.80
2019-03-31T05:58:17.752Z,6.80
2019-03-31T05:59:21.357Z,6.80
2019-03-31T06:00:36.943Z,6.90
2019-03-31T06:01:40.612Z,6.90
2019-03-31T06:02:44.210Z,6.90
2019-03-31T06:03:47.806Z,6.90
2019-03-31T06:04:51.592Z,6.80
2019-03-31T06:05:55.238Z,6.80
2019-03-31T06:06:58.860Z,6.90
2019-03-31T06:08:02.448Z,6.90
2019-03-31T06:09:06.528Z,7.00
2019-03-31T06:10:10.318Z,7.00
2019-03-31T06:11:13.927Z,7.00
2019-03-31T06:12:17.535Z,7.00
2019-03-31T06:13:21.139Z,7.10
2019-03-31T06:14:24.736Z,7.10
2019-03-31T06:15:28.381Z,7.10
2019-03-31T06:16:31.991Z,7.10
2019-03-31T06:17:35.602Z,7.10
2019-03-31T06:18:39.393Z,7.20
2019-03-31T06:19:43.015Z,7.20
2019-03-31T06:20:46.645Z,7.20
2019-03-31T06:21:50.300Z,7.20
2019-03-31T06:22:53.926Z,7.30
2019-03-31T06:23:57.530Z,7.40
2019-03-31T06:25:01.126Z,7.40
2019-03-31T06:26:04.826Z,7.40
2019-03-31T06:27:08.460Z,7.40
2019-03-31T06:28:12.127Z,7.40
2019-03-31T06:29:15.724Z,7.40
2019-03-31T06:30:19.581Z,7.50
2019-03-31T06:31:23.252Z,7.60
2019-03-31T06:32:26.861Z,7.60
2019-03-31T06:33:30.478Z,7.60
2019-03-31T06:34:46.673Z,7.60
2019-03-31T06:35:39.397Z,7.60
2019-03-31T06:36:43.005Z,7.60
2019-03-31T06:37:46.613Z,7.60
2019-03-31T06:38:50.215Z,7.50
2019-03-31T06:39:53.821Z,7.40
2019-03-31T06:40:58.453Z,7.40
2019-03-31T06:42:02.053Z,7.40
2019-03-31T06:43:05.724Z,7.40
2019-03-31T06:44:09.334Z,7.50
2019-03-31T06:45:13.079Z,7.50
2019-03-31T06:46:16.730Z,7.60
2019-03-31T06:47:20.374Z,7.50
2019-03-31T06:48:23.965Z,7.50
2019-03-31T06:49:27.562Z,7.60
2019-03-31T06:50:31.170Z,7.60
2019-03-31T06:51:34.788Z,7.60
2019-03-31T06:52:38.435Z,7.60
2019-03-31T06:53:42.037Z,7.60
2019-03-31T06:54:45.649Z,7.60
2019-03-31T06:55:49.351Z,7.70
2019-03-31T06:56:53.010Z,7.70
2019-03-31T06:57:56.615Z,7.80
2019-03-31T06:59:00.214Z,7.70
2019-03-31T07:00:07.936Z,7.70
2019-03-31T07:01:11.561Z,7.70
2019-03-31T07:02:15.210Z,7.80
2019-03-31T07:03:18.817Z,7.80
2019-03-31T07:04:22.432Z,7.80
2019-03-31T07:05:26.096Z,7.80
2019-03-31T07:06:29.712Z,7.80
2019-03-31T07:07:33.350Z,7.70
2019-03-31T07:08:36.949Z,7.70
2019-03-31T07:09:40.590Z,7.80
2019-03-31T07:10:44.497Z,7.80
2019-03-31T07:11:48.169Z,7.70
2019-03-31T07:12:51.851Z,7.70
2019-03-31T07:13:55.447Z,7.70
2019-03-31T07:14:59.052Z,7.80
2019-03-31T07:16:02.702Z,7.80
2019-03-31T07:17:06.349Z,7.80
2019-03-31T07:18:09.954Z,7.80
2019-03-31T07:19:13.555Z,7.80
2019-03-31T07:20:17.708Z,7.80
2019-03-31T07:21:21.326Z,7.70
2019-03-31T07:22:24.975Z,7.70
2019-03-31T07:23:28.580Z,7.70
2019-03-31T07:24:32.187Z,7.70
2019-03-31T07:25:37.351Z,7.70
2019-03-31T07:26:41.072Z,7.70
2019-03-31T07:27:44.749Z,7.70
2019-03-31T07:28:48.349Z,7.70
2019-03-31T07:29:51.955Z,7.70
2019-03-31T07:30:55.615Z,7.70
2019-03-31T07:31:59.262Z,7.80
2019-03-31T07:33:02.865Z,7.80
2019-03-31T07:34:06.470Z,7.90
2019-03-31T07:35:18.285Z,7.90
2019-03-31T07:36:16.416Z,7.90
2019-03-31T07:37:20.054Z,7.90
2019-03-31T07:38:23.729Z,8.00
2019-03-31T07:39:27.335Z,8.00
2019-03-31T07:40:31.373Z,7.90
2019-03-31T07:41:36.355Z,8.00
2019-03-31T07:42:40.096Z,8.00
2019-03-31T07:43:43.706Z,8.00
2019-03-31T07:44:47.340Z,8.00
2019-03-31T07:45:51.019Z,8.10
2019-03-31T07:46:54.666Z,8.10
2019-03-31T07:47:58.272Z,8.00
2019-03-31T07:49:01.890Z,8.00
2019-03-31T07:50:10.832Z,8.10
2019-03-31T07:51:14.447Z,8.10
2019-03-31T07:52:18.096Z,8.10
2019-03-31T07:53:21.705Z,8.10
2019-03-31T07:54:25.312Z,8.10
2019-03-31T07:55:28.921Z,8.10
2019-03-31T07:56:32.628Z,8.10
2019-03-31T07:57:36.310Z,7.90
2019-03-31T07:58:39.919Z,8.00
2019-03-31T07:59:43.565Z,7.90
2019-03-31T08:00:47.136Z,8.00
2019-03-31T08:01:50.788Z,8.10
2019-03-31T08:02:54.400Z,8.00
2019-03-31T08:03:58.015Z,8.00
2019-03-31T08:05:01.630Z,8.00
2019-03-31T08:06:05.372Z,8.10
2019-03-31T08:07:09.041Z,8.10
2019-03-31T08:08:12.643Z,8.10
2019-03-31T08:09:16.312Z,8.20
2019-03-31T08:10:21.698Z,8.20
2019-03-31T08:11:25.309Z,8.30
2019-03-31T08:12:28.914Z,8.40
2019-03-31T08:13:32.566Z,8.50
2019-03-31T08:14:36.180Z,8.50
2019-03-31T08:15:39.791Z,8.50
2019-03-31T08:16:43.429Z,8.60
2019-03-31T08:17:47.035Z,8.60
2019-03-31T08:18:50.639Z,8.70
2019-03-31T08:19:54.239Z,8.50
2019-03-31T08:20:57.890Z,8.50
2019-03-31T08:22:01.484Z,8.50
2019-03-31T08:23:05.163Z,8.50
2019-03-31T08:24:08.767Z,8.50
2019-03-31T08:25:13.174Z,8.60
2019-03-31T08:26:16.831Z,8.60
2019-03-31T08:27:20.438Z,8.60
2019-03-31T08:28:24.974Z,8.50
2019-03-31T08:29:28.579Z,8.50
2019-03-31T08:30:32.223Z,8.50
2019-03-31T08:31:35.881Z,8.60
2019-03-31T08:32:39.766Z,8.70
2019-03-31T08:33:43.364Z,8.70
2019-03-31T08:34:47.047Z,8.60
2019-03-31T08:35:50.687Z,8.60
2019-03-31T08:36:54.306Z,8.70
2019-03-31T08:37:57.923Z,8.70
2019-03-31T08:39:01.523Z,8.80
2019-03-31T08:40:07.673Z,8.80
2019-03-31T08:41:11.327Z,8.70
2019-03-31T08:42:14.922Z,8.70
2019-03-31T08:43:18.580Z,8.70
2019-03-31T08:44:22.182Z,8.70
2019-03-31T08:45:25.801Z,8.80
2019-03-31T08:46:29.408Z,8.90
2019-03-31T08:47:33.020Z,9.00
2019-03-31T08:48:36.668Z,9.00
2019-03-31T08:49:40.278Z,9.10
2019-03-31T08:50:43.865Z,9.20
2019-03-31T08:51:47.461Z,9.30
2019-03-31T08:52:51.062Z,9.30
2019-03-31T08:53:54.700Z,9.40
2019-03-31T08:54:58.317Z,9.50
2019-03-31T08:56:01.929Z,9.50
2019-03-31T08:57:05.728Z,9.50
2019-03-31T08:58:09.323Z,9.60
2019-03-31T08:59:12.921Z,9.70
2019-03-31T09:00:24.924Z,10.00
2019-03-31T09:01:28.526Z,10.40
2019-03-31T09:02:33.816Z,10.90
2019-03-31T09:03:37.422Z,11.20
2019-03-31T09:04:41.111Z,11.50
2019-03-31T09:05:44.707Z,11.90
2019-03-31T09:06:48.376Z,12.30
2019-03-31T09:07:52.063Z,12.80
2019-03-31T09:08:55.673Z,13.00
2019-03-31T09:09:59.281Z,13.30
2019-03-31T09:11:02.900Z,13.70
2019-03-31T09:12:06.553Z,13.60
2019-03-31T09:13:10.175Z,14.10
2019-03-31T09:14:13.782Z,14.70
2019-03-31T09:15:17.461Z,15.30
2019-03-31T09:16:21.121Z,15.60
2019-03-31T09:17:24.728Z,15.70
2019-03-31T09:18:28.341Z,16.10
2019-03-31T09:19:31.964Z,16.30
2019-03-31T09:20:35.582Z,16.40
2019-03-31T09:21:39.244Z,16.20
2019-03-31T09:22:42.846Z,16.20
2019-03-31T09:23:46.568Z,16.10
2019-03-31T09:24:50.174Z,16.10
2019-03-31T09:25:53.844Z,16.00
2019-03-31T09:26:57.505Z,16.00
2019-03-31T09:28:01.188Z,16.00
2019-03-31T09:29:04.966Z,16.00
2019-03-31T09:30:12.273Z,16.10
2019-03-31T09:31:15.869Z,16.10
2019-03-31T09:32:19.526Z,16.10
2019-03-31T09:33:23.145Z,16.00
2019-03-31T09:34:26.755Z,15.80
2019-03-31T09:35:30.366Z,15.90
2019-03-31T09:36:33.983Z,16.10
2019-03-31T09:37:37.772Z,15.90
2019-03-31T09:38:41.437Z,15.70
2019-03-31T09:39:45.043Z,15.20
2019-03-31T09:40:48.668Z,14.90
2019-03-31T09:41:52.268Z,14.70
2019-03-31T09:42:55.876Z,14.00
2019-03-31T09:43:59.525Z,13.60
2019-03-31T09:45:03.204Z,13.00
2019-03-31T09:46:07.091Z,12.70
2019-03-31T09:47:10.688Z,12.50
2019-03-31T09:48:14.336Z,12.40
2019-03-31T09:49:18.000Z,12.40
2019-03-31T09:50:21.935Z,12.30
2019-03-31T09:51:25.534Z,12.20
2019-03-31T09:52:29.157Z,12.30
2019-03-31T09:53:32.762Z,12.30
2019-03-31T09:54:36.436Z,12.30
2019-03-31T09:55:40.047Z,12.30
2019-03-31T09:56:43.652Z,12.10
2019-03-31T09:57:47.278Z,11.90
2019-03-31T09:58:51.121Z,11.60
2019-03-31T09:59:54.777Z,11.50
2019-03-31T10:00:58.382Z,11.20
2019-03-31T10:02:02.063Z,11.20
2019-03-31T10:03:05.672Z,11.30
2019-03-31T10:04:09.340Z,11.30
2019-03-31T10:05:14.684Z,11.20
2019-03-31T10:06:29.624Z,11.10
2019-03-31T10:07:23.987Z,10.90
2019-03-31T10:08:27.775Z,10.90
2019-03-31T10:09:31.604Z,10.80
2019-03-31T10:10:35.406Z,10.80
2019-03-31T10:11:39.018Z,10.90
2019-03-31T10:12:42.626Z,10.90
2019-03-31T10:13:46.274Z,10.90
2019-03-31T10:14:49.890Z,10.90
2019-03-31T10:15:53.500Z,10.90
2019-03-31T10:16:57.128Z,10.90
2019-03-31T10:18:00.737Z,11.10
2019-03-31T10:19:04.462Z,11.40
2019-03-31T10:20:08.524Z,11.60
2019-03-31T10:21:12.245Z,11.70
2019-03-31T10:22:15.790Z,12.00
2019-03-31T10:23:19.401Z,12.20
2019-03-31T10:24:23.126Z,12.50
2019-03-31T10:25:26.794Z,12.60
2019-03-31T10:26:32.035Z,12.40
2019-03-31T10:27:35.675Z,12.10
2019-03-31T10:28:39.281Z,12.00
2019-03-31T10:29:42.948Z,12.00
2019-03-31T10:30:46.642Z,12.00
2019-03-31T10:31:50.271Z,12.00
2019-03-31T10:32:53.954Z,11.90
2019-03-31T10:33:57.623Z,11.90
2019-03-31T10:35:01.276Z,11.90
2019-03-31T10:36:04.883Z,11.80
2019-03-31T10:37:08.499Z,11.80
2019-03-31T10:38:12.117Z,11.60
2019-03-31T10:39:15.743Z,11.60
2019-03-31T10:40:19.453Z,11.30
2019-03-31T10:41:23.101Z,11.10
2019-03-31T10:42:26.714Z,11.10
2019-03-31T10:43:30.404Z,11.10
2019-03-31T10:44:34.085Z,11.00
2019-03-31T10:45:37.870Z,10.90
2019-03-31T10:46:41.591Z,10.70
2019-03-31T10:47:45.254Z,10.70
2019-03-31T10:48:48.862Z,10.60
2019-03-31T10:49:52.746Z,10.60
2019-03-31T10:50:56.350Z,10.70
2019-03-31T10:52:00.011Z,10.80
2019-03-31T10:53:03.710Z,10.90
2019-03-31T10:54:07.298Z,11.00
2019-03-31T10:55:11.128Z,11.10
2019-03-31T10:56:14.791Z,11.20
2019-03-31T10:57:18.405Z,11.30
2019-03-31T10:58:22.025Z,11.30
2019-03-31T10:59:25.642Z,11.30
2019-03-31T11:00:34.200Z,11.40
2019-03-31T11:01:37.851Z,11.50
2019-03-31T11:02:41.511Z,11.60
2019-03-31T11:03:45.107Z,11.60
2019-03-31T11:04:48.722Z,11.50
2019-03-31T11:05:53.621Z,11.50
2019-03-31T11:06:59.681Z,11.50
2019-03-31T11:08:02.762Z,11.50
2019-03-31T11:09:06.818Z,11.60
2019-03-31T11:10:10.677Z,11.70
2019-03-31T11:11:14.289Z,11.60
2019-03-31T11:12:17.977Z,11.70
2019-03-31T11:13:21.627Z,11.70
2019-03-31T11:14:25.234Z,11.80
2019-03-31T11:15:28.849Z,11.80
2019-03-31T11:16:32.447Z,11.70
2019-03-31T11:17:36.064Z,11.60
2019-03-31T11:18:39.739Z,11.50
2019-03-31T11:19:43.349Z,11.40
2019-03-31T11:20:46.976Z,11.50
2019-03-31T11:21:52.232Z,11.40
2019-03-31T11:22:57.488Z,11.30
2019-03-31T11:24:01.152Z,11.30
2019-03-31T11:25:19.969Z,11.20
2019-03-31T11:26:12.278Z,11.00
2019-03-31T11:27:15.894Z,11.00
2019-03-31T11:28:19.493Z,11.00
2019-03-31T11:29:23.179Z,10.90
2019-03-31T11:30:26.869Z,10.80
2019-03-31T11:31:31.441Z,10.80
2019-03-31T11:32:35.066Z,10.90
2019-03-31T11:33:38.680Z,10.80
2019-03-31T11:34:42.293Z,10.90
2019-03-31T11:35:45.912Z,10.90
2019-03-31T11:36:49.548Z,11.00
2019-03-31T11:37:53.150Z,11.00
2019-03-31T11:38:56.799Z,11.00
2019-03-31T11:40:00.436Z,11.00
2019-03-31T11:41:04.089Z,11.00
2019-03-31T11:42:07.689Z,11.00
2019-03-31T11:43:11.304Z,10.90
2019-03-31T11:44:14.981Z,11.00
2019-03-31T11:45:18.725Z,11.10
2019-03-31T11:46:22.332Z,11.10
2019-03-31T11:47:25.950Z,11.20
2019-03-31T11:48:29.609Z,11.10
2019-03-31T11:49:33.211Z,11.10
2019-03-31T11:50:36.827Z,11.20
2019-03-31T11:51:40.442Z,11.00
2019-03-31T11:52:44.051Z,11.00
2019-03-31T11:53:47.698Z,11.00
2019-03-31T11:54:51.310Z,10.90
2019-03-31T11:55:54.909Z,10.80
2019-03-31T11:56:58.525Z,10.80
2019-03-31T11:58:02.199Z,10.80
2019-03-31T11:59:05.819Z,10.90
2019-03-31T12:00:18.951Z,10.90
2019-03-31T12:01:22.514Z,11.00
2019-03-31T12:02:27.745Z,11.10
2019-03-31T12:03:31.553Z,11.00
2019-03-31T12:04:35.157Z,11.10
2019-03-31T12:05:38.774Z,11.20
2019-03-31T12:06:42.436Z,11.20
2019-03-31T12:07:47.429Z,11.20
2019-03-31T12:08:51.202Z,11.10
2019-03-31T12:09:54.813Z,11.00
2019-03-31T12:10:58.424Z,11.00
2019-03-31T12:12:02.087Z,11.20
2019-03-31T12:13:05.698Z,11.20
2019-03-31T12:14:09.405Z,11.30
2019-03-31T12:15:13.264Z,11.30
2019-03-31T12:16:16.866Z,11.40
2019-03-31T12:17:20.507Z,11.40
2019-03-31T12:18:24.118Z,11.50
2019-03-31T12:19:27.728Z,11.40
2019-03-31T12:20:31.331Z,11.30
2019-03-31T12:21:34.932Z,11.30
2019-03-31T12:22:38.583Z,11.20
2019-03-31T12:23:42.305Z,11.30
2019-03-31T12:24:45.920Z,11.30
2019-03-31T12:25:49.504Z,11.30
2019-03-31T12:26:53.176Z,11.40
2019-03-31T12:27:56.811Z,11.40
2019-03-31T12:29:00.462Z,11.40
2019-03-31T12:30:06.329Z,11.50
2019-03-31T12:31:09.920Z,11.60
2019-03-31T12:32:13.523Z,11.70
2019-03-31T12:33:17.244Z,11.70
2019-03-31T12:34:20.851Z,11.80
2019-03-31T12:35:24.444Z,11.90
2019-03-31T12:36:28.097Z,11.90
2019-03-31T12:37:42.344Z,11.80
2019-03-31T12:38:37.071Z,11.60
2019-03-31T12:39:40.756Z,11.50
2019-03-31T12:40:44.383Z,11.50
2019-03-31T12:41:47.954Z,11.60
2019-03-31T12:42:51.555Z,11.50
2019-03-31T12:43:55.221Z,11.60
2019-03-31T12:44:58.818Z,11.60
2019-03-31T12:46:04.513Z,11.60
2019-03-31T12:47:08.190Z,11.60
2019-03-31T12:48:11.768Z,11.70
2019-03-31T12:49:15.368Z,11.80
2019-03-31T12:50:18.976Z,11.80
2019-03-31T12:51:22.699Z,11.80
2019-03-31T12:52:26.304Z,12.00
2019-03-31T12:53:29.981Z,12.10
2019-03-31T12:54:33.587Z,12.10
2019-03-31T12:55:37.197Z,12.10
2019-03-31T12:56:40.838Z,12.20
2019-03-31T12:57:44.454Z,12.30
2019-03-31T12:58:48.078Z,12.30
2019-03-31T12:59:51.682Z,12.40
2019-03-31T13:00:55.352Z,12.50
2019-03-31T13:01:59.051Z,12.40
2019-03-31T13:03:02.647Z,12.50
2019-03-31T13:04:06.241Z,12.60
2019-03-31T13:05:10.034Z,12.70
2019-03-31T13:06:13.755Z,12.80
2019-03-31T13:07:17.355Z,12.80
2019-03-31T13:08:21.005Z,12.80
2019-03-31T13:09:24.603Z,13.10
2019-03-31T13:10:28.213Z,13.30
2019-03-31T13:11:31.849Z,13.60
2019-03-31T13:12:35.507Z,14.10
2019-03-31T13:13:39.098Z,14.60
2019-03-31T13:14:42.702Z,15.00
2019-03-31T13:15:46.302Z,15.20
2019-03-31T13:16:49.955Z,15.60
2019-03-31T13:17:53.624Z,15.70
2019-03-31T13:18:57.265Z,15.80
2019-03-31T13:20:00.861Z,15.50
2019-03-31T13:21:04.639Z,15.40
2019-03-31T13:22:08.241Z,15.30
2019-03-31T13:23:11.958Z,15.30
2019-03-31T13:24:15.559Z,15.00
2019-03-31T13:25:19.211Z,15.00
2019-03-31T13:26:22.896Z,14.80
2019-03-31T13:27:26.495Z,14.70
2019-03-31T13:28:30.175Z,14.80
2019-03-31T13:29:33.776Z,14.30
2019-03-31T13:30:37.440Z,14.10
2019-03-31T13:31:41.033Z,14.30
2019-03-31T13:32:44.640Z,14.10
2019-03-31T13:33:48.555Z,14.20
2019-03-31T13:34:52.147Z,14.40
2019-03-31T13:35:55.878Z,14.80
2019-03-31T13:36:59.522Z,15.30
2019-03-31T13:38:11.098Z,15.30
2019-03-31T13:39:08.534Z,15.60
2019-03-31T13:40:12.623Z,15.70
2019-03-31T13:41:16.274Z,15.70
2019-03-31T13:42:20.052Z,15.60
2019-03-31T13:43:23.653Z,15.50
2019-03-31T13:44:27.275Z,15.60
2019-03-31T13:45:30.887Z,15.30
2019-03-31T13:46:34.547Z,15.50
2019-03-31T13:47:38.160Z,15.50
2019-03-31T13:48:41.838Z,15.50
2019-03-31T13:49:45.439Z,15.50
2019-03-31T13:50:49.049Z,15.30
2019-03-31T13:51:52.689Z,15.00
2019-03-31T13:52:56.303Z,14.70
2019-03-31T13:53:59.913Z,14.30
2019-03-31T13:55:05.720Z,14.20
2019-03-31T13:56:09.411Z,13.90
2019-03-31T13:57:13.693Z,13.60
2019-03-31T13:58:19.051Z,13.40
2019-03-31T13:59:23.039Z,13.20
2019-03-31T14:00:34.707Z,13.00